Time;durP1;ratioP1;P1;durP2;ratioP2;P2;SDS_P1;SDS_P2;PMS_P1;PMS_P2;Temp;Humidity;BMP_temperature;BMP_pressure;BME280_temperature;BME280_humidity;BME280_pressure;Samples;Min_cycle;Max_cycle;Signal;HPM_P1;HPM_P2
2022/04/12 00:00:46;;;;;;;10.63;4.95;;;;;;;;;;5045696;28;20056;-72
2022/04/12 00:03:12;;;;;;;9.18;6.57;;;;;;;;;;5048156;28;20145;-73
2022/04/12 00:05:40;;;;;;;11.32;5.63;;;;;;;;;;5046633;28;20079;-73
2022/04/12 00:08:07;;;;;;;8.15;4.68;;;;;;;;;;5047691;28;20124;-73
2022/04/12 00:10:33;;;;;;;12.00;5.40;;;;;;;;;;5039955;28;20033;-72
2022/04/12 00:13:00;;;;;;;11.23;4.20;;;;;;;;;;5041232;28;20825;-73
2022/04/12 00:15:26;;;;;;;12.02;5.07;;;;;;;;;;5045782;28;20410;-73
2022/04/12 00:20:37;;;;;;;8.23;4.43;;;;;;;;;;5038763;28;20041;-73
2022/04/12 00:23:04;;;;;;;14.38;4.97;;;;;;;;;;5043803;28;20029;-73
2022/04/12 00:25:30;;;;;;;10.10;4.22;;;;;;;;;;5050080;28;20382;-73
2022/04/12 00:27:57;;;;;;;14.77;4.93;;;;;;;;;;5044246;28;20032;-72
2022/04/12 00:30:24;;;;;;;8.77;4.22;;;;;;;;;;5045890;28;20025;-73
2022/04/12 00:32:52;;;;;;;11.85;5.30;;;;;;;;;;5034197;28;20103;-72
2022/04/12 00:35:18;;;;;;;14.00;6.93;;;;;;;;;;5045815;28;20016;-73
2022/04/12 00:37:45;;;;;;;11.98;6.70;;;;;;;;;;5045411;28;20025;-73
2022/04/12 00:40:11;;;;;;;9.48;6.10;;;;;;;;;;5045362;28;20029;-73
2022/04/12 00:42:38;;;;;;;11.55;7.03;;;;;;;;;;5048258;28;20037;-73
2022/04/12 00:45:05;;;;;;;13.77;6.30;;;;;;;;;;5031769;28;20499;-72
2022/04/12 00:47:31;;;;;;;14.90;5.53;;;;;;;;;;5033213;28;20517;-72
2022/04/12 00:49:59;;;;;;;17.77;6.40;;;;;;;;;;5031497;28;20029;-71
2022/04/12 00:52:26;;;;;;;12.50;5.50;;;;;;;;;;5050990;28;20090;-72
2022/04/12 00:54:53;;;;;;;9.93;5.38;;;;;;;;;;5045198;28;20033;-72
2022/04/12 00:57:19;;;;;;;13.23;5.20;;;;;;;;;;5042717;28;20025;-72
2022/04/12 00:59:46;;;;;;;13.38;5.32;;;;;;;;;;5044184;28;20021;-72
2022/04/12 01:02:12;;;;;;;13.25;4.93;;;;;;;;;;5046425;28;20021;-72
2022/04/12 01:04:38;;;;;;;12.07;5.10;;;;;;;;;;5049287;28;20021;-72
2022/04/12 01:07:06;;;;;;;12.27;4.90;;;;;;;;;;5049014;28;20094;-72
2022/04/12 01:09:32;;;;;;;10.93;5.57;;;;;;;;;;5047581;28;20033;-73
2022/04/12 01:11:58;;;;;;;11.35;5.43;;;;;;;;;;5037031;28;20479;-72
2022/04/12 01:14:25;;;;;;;14.43;5.10;;;;;;;;;;5048160;28;20105;-72
2022/04/12 01:16:51;;;;;;;11.68;5.07;;;;;;;;;;5048392;28;20118;-72
2022/04/12 01:19:17;;;;;;;13.82;5.15;;;;;;;;;;5035184;28;20570;-72
2022/04/12 01:22:00;;;;;;;9.50;5.97;;;;;;;;;;5050437;28;20036;-73
2022/04/12 01:24:27;;;;;;;20.67;6.65;;;;;;;;;;5045218;28;20271;-73
2022/04/12 01:26:53;;;;;;;10.40;5.70;;;;;;;;;;5025683;28;20037;-72
2022/04/12 01:29:19;;;;;;;12.43;5.47;;;;;;;;;;5043864;28;20021;-72
2022/04/12 01:31:45;;;;;;;12.00;4.22;;;;;;;;;;5049059;28;20431;-71
2022/04/12 01:34:12;;;;;;;9.07;4.90;;;;;;;;;;5047647;28;20044;-73
2022/04/12 01:36:38;;;;;;;8.45;4.63;;;;;;;;;;5049060;28;20107;-72
2022/04/12 01:39:05;;;;;;;10.40;4.93;;;;;;;;;;5046091;28;20021;-70
2022/04/12 01:41:31;;;;;;;9.80;4.47;;;;;;;;;;5030339;28;20028;-72
2022/04/12 01:43:58;;;;;;;13.23;4.88;;;;;;;;;;5046133;28;20056;-73
2022/04/12 01:46:24;;;;;;;8.23;4.90;;;;;;;;;;5045023;28;20482;-73
2022/04/12 01:48:50;;;;;;;12.82;4.90;;;;;;;;;;5046080;28;20037;-73
2022/04/12 01:51:17;;;;;;;8.30;4.35;;;;;;;;;;5047629;28;20464;-73
2022/04/12 01:53:43;;;;;;;19.23;6.03;;;;;;;;;;5044611;28;20033;-72
2022/04/12 01:56:09;;;;;;;11.93;5.82;;;;;;;;;;5046837;28;20111;-72
2022/04/12 01:58:36;;;;;;;12.00;5.82;;;;;;;;;;5050143;28;20032;-72
2022/04/12 02:01:02;;;;;;;12.60;5.22;;;;;;;;;;5046595;28;20028;-73
2022/04/12 02:03:28;;;;;;;14.25;6.07;;;;;;;;;;5042031;28;20407;-73
2022/04/12 02:05:54;;;;;;;15.88;7.10;;;;;;;;;;5049691;28;20045;-72
2022/04/12 02:08:25;;;;;;;11.65;5.47;;;;;;;;;;5045352;28;20025;-72
2022/04/12 02:10:51;;;;;;;14.35;5.43;;;;;;;;;;5041546;28;20029;-72
2022/04/12 02:13:17;;;;;;;13.85;4.93;;;;;;;;;;5049311;28;20111;-72
2022/04/12 02:15:43;;;;;;;11.80;4.93;;;;;;;;;;5043295;28;20029;-73
2022/04/12 02:18:09;;;;;;;11.32;5.70;;;;;;;;;;5045973;28;20061;-73
2022/04/12 02:20:36;;;;;;;9.48;4.55;;;;;;;;;;5044976;28;20024;-72
2022/04/12 02:23:02;;;;;;;11.07;5.03;;;;;;;;;;5043249;28;20029;-72
2022/04/12 02:25:28;;;;;;;8.82;5.00;;;;;;;;;;5046979;28;20037;-73
2022/04/12 02:27:54;;;;;;;9.85;4.55;;;;;;;;;;5047239;28;20052;-72
2022/04/12 02:30:21;;;;;;;11.10;4.20;;;;;;;;;;5047239;28;20089;-74
2022/04/12 02:32:47;;;;;;;12.07;4.88;;;;;;;;;;5048186;28;20033;-73
2022/04/12 02:35:13;;;;;;;13.57;5.63;;;;;;;;;;5045224;28;20529;-73
2022/04/12 02:37:39;;;;;;;13.73;4.18;;;;;;;;;;5043401;28;20025;-72
2022/04/12 02:40:05;;;;;;;9.88;5.55;;;;;;;;;;5045376;28;20032;-71
2022/04/12 02:42:31;;;;;;;10.20;4.55;;;;;;;;;;5043603;28;20021;-72
2022/04/12 02:44:57;;;;;;;13.90;4.25;;;;;;;;;;5045123;28;20379;-72
2022/04/12 02:47:25;;;;;;;10.45;4.40;;;;;;;;;;5039448;28;20104;-72
2022/04/12 02:49:51;;;;;;;10.88;4.55;;;;;;;;;;5049271;28;20035;-71
2022/04/12 02:52:17;;;;;;;14.23;4.43;;;;;;;;;;5041704;28;20053;-73
2022/04/12 02:54:43;;;;;;;12.40;4.28;;;;;;;;;;5043900;28;20037;-72
2022/04/12 02:57:10;;;;;;;7.65;4.68;;;;;;;;;;5045484;28;20108;-73
2022/04/12 02:59:36;;;;;;;9.95;4.75;;;;;;;;;;5049811;28;20079;-72
2022/04/12 03:02:02;;;;;;;10.07;4.38;;;;;;;;;;5043781;28;20044;-73
2022/04/12 03:04:28;;;;;;;9.20;4.30;;;;;;;;;;5047424;28;20029;-73
2022/04/12 03:06:54;;;;;;;12.65;5.43;;;;;;;;;;5043681;28;20059;-73
2022/04/12 03:09:20;;;;;;;12.02;4.55;;;;;;;;;;5046529;28;20099;-73
2022/04/12 03:11:46;;;;;;;11.43;4.32;;;;;;;;;;5042653;28;20033;-73
2022/04/12 03:14:12;;;;;;;10.57;5.38;;;;;;;;;;5048160;28;20028;-73
2022/04/12 03:16:38;;;;;;;13.70;4.80;;;;;;;;;;5045169;28;20025;-73
2022/04/12 03:19:04;;;;;;;25.70;6.95;;;;;;;;;;5047617;28;20018;-74
2022/04/12 03:21:30;;;;;;;13.48;5.93;;;;;;;;;;5041589;28;20021;-72
2022/04/12 03:23:56;;;;;;;11.82;5.38;;;;;;;;;;5045566;28;20029;-75
2022/04/12 03:26:22;;;;;;;9.45;4.85;;;;;;;;;;5046349;28;20033;-74
2022/04/12 03:28:48;;;;;;;13.57;6.15;;;;;;;;;;5034970;28;20311;-73
2022/04/12 03:31:14;;;;;;;11.85;5.45;;;;;;;;;;5046113;28;20036;-72
2022/04/12 03:33:41;;;;;;;10.02;4.88;;;;;;;;;;5041923;28;20663;-73
2022/04/12 03:36:07;;;;;;;11.15;5.53;;;;;;;;;;5048511;28;20033;-72
2022/04/12 03:38:35;;;;;;;10.98;5.15;;;;;;;;;;5045972;28;20033;-72
2022/04/12 03:41:03;;;;;;;11.38;6.72;;;;;;;;;;5045384;28;20040;-73
2022/04/12 03:43:29;;;;;;;11.88;5.53;;;;;;;;;;5039564;28;20067;-72
2022/04/12 03:45:55;;;;;;;16.17;5.85;;;;;;;;;;5044403;28;20036;-72
2022/04/12 03:48:21;;;;;;;14.98;4.88;;;;;;;;;;5042733;28;20021;-72
2022/04/12 03:50:47;;;;;;;14.13;6.13;;;;;;;;;;5045368;28;20043;-72
2022/04/12 03:53:13;;;;;;;9.93;4.82;;;;;;;;;;5039645;28;20029;-72
2022/04/12 03:55:40;;;;;;;15.18;4.75;;;;;;;;;;5045360;28;20032;-72
2022/04/12 03:58:08;;;;;;;8.85;5.75;;;;;;;;;;5044213;28;20021;-73
2022/04/12 04:00:34;;;;;;;16.23;5.43;;;;;;;;;;5039773;28;20044;-72
2022/04/12 04:03:00;;;;;;;12.13;4.68;;;;;;;;;;5047297;28;20025;-72
2022/04/12 04:05:27;;;;;;;9.25;5.10;;;;;;;;;;5043071;28;20096;-72
2022/04/12 04:07:53;;;;;;;10.75;4.57;;;;;;;;;;5043725;28;20063;-72
2022/04/12 04:10:20;;;;;;;11.00;5.00;;;;;;;;;;5032873;28;20486;-72
2022/04/12 04:12:46;;;;;;;11.52;4.50;;;;;;;;;;5046552;28;20044;-72
2022/04/12 04:15:12;;;;;;;9.93;4.75;;;;;;;;;;5038079;28;20104;-71
2022/04/12 04:17:45;;;;;;;10.15;4.18;;;;;;;;;;5036420;28;20027;-71
2022/04/12 04:20:12;;;;;;;12.63;4.22;;;;;;;;;;5039962;28;20029;-71
2022/04/12 04:22:40;;;;;;;11.82;5.10;;;;;;;;;;5048643;28;20028;-72
2022/04/12 04:25:06;;;;;;;10.52;4.65;;;;;;;;;;5047380;28;20021;-72
2022/04/12 04:27:34;;;;;;;14.23;5.72;;;;;;;;;;5047029;28;20139;-71
2022/04/12 04:30:00;;;;;;;11.82;4.68;;;;;;;;;;5050054;28;20021;-73
2022/04/12 04:32:26;;;;;;;18.67;6.13;;;;;;;;;;5052506;28;20151;-72
2022/04/12 04:34:52;;;;;;;16.33;6.40;;;;;;;;;;5047406;28;20036;-73
2022/04/12 04:37:18;;;;;;;7.00;4.72;;;;;;;;;;5048085;28;20026;-73
2022/04/12 04:39:45;;;;;;;9.88;5.18;;;;;;;;;;5047329;28;20021;-72
2022/04/12 04:42:11;;;;;;;10.23;5.75;;;;;;;;;;5051146;28;20040;-72
2022/04/12 04:44:37;;;;;;;13.07;6.57;;;;;;;;;;5051249;28;20029;-72
2022/04/12 04:47:03;;;;;;;12.18;5.63;;;;;;;;;;5046971;28;20096;-72
2022/04/12 04:49:29;;;;;;;15.40;5.97;;;;;;;;;;5045755;28;20497;-72
2022/04/12 04:51:55;;;;;;;12.82;5.57;;;;;;;;;;5049198;28;20517;-72
2022/04/12 04:54:21;;;;;;;15.65;6.53;;;;;;;;;;5032755;28;20039;-72
2022/04/12 04:56:47;;;;;;;17.98;6.95;;;;;;;;;;5043988;28;20017;-72
2022/04/12 04:59:13;;;;;;;16.60;6.18;;;;;;;;;;5048524;28;20033;-72
2022/04/12 05:01:40;;;;;;;18.13;6.43;;;;;;;;;;5045598;28;20395;-73
2022/04/12 05:04:06;;;;;;;23.98;7.03;;;;;;;;;;5050929;28;20391;-73
2022/04/12 05:06:32;;;;;;;14.52;6.72;;;;;;;;;;5051113;28;20102;-72
2022/04/12 05:08:58;;;;;;;19.90;6.82;;;;;;;;;;5047994;28;20040;-73
2022/04/12 05:11:24;;;;;;;22.75;8.73;;;;;;;;;;5040052;28;20083;-72
2022/04/12 05:13:51;;;;;;;14.65;7.43;;;;;;;;;;5048113;28;20091;-72
2022/04/12 05:16:17;;;;;;;17.52;7.25;;;;;;;;;;5048186;28;20029;-72
2022/04/12 05:18:43;;;;;;;15.57;7.30;;;;;;;;;;5045504;28;20034;-73
2022/04/12 05:21:09;;;;;;;17.90;7.47;;;;;;;;;;5044780;28;20021;-72
2022/04/12 05:23:35;;;;;;;16.73;8.45;;;;;;;;;;5047266;28;20493;-73
2022/04/12 05:26:01;;;;;;;20.95;7.40;;;;;;;;;;5049608;28;20084;-72
2022/04/12 05:28:27;;;;;;;13.55;8.27;;;;;;;;;;5046293;28;20024;-73
2022/04/12 05:30:53;;;;;;;15.50;8.00;;;;;;;;;;5053478;28;20088;-74
2022/04/12 05:33:20;;;;;;;20.10;8.48;;;;;;;;;;5046789;28;20164;-74
2022/04/12 05:35:46;;;;;;;20.67;8.98;;;;;;;;;;5048244;28;20522;-73
2022/04/12 05:38:12;;;;;;;19.05;8.82;;;;;;;;;;5049310;28;20032;-72
2022/04/12 05:40:38;;;;;;;21.25;9.07;;;;;;;;;;5048649;28;20027;-72
2022/04/12 05:43:04;;;;;;;19.33;9.10;;;;;;;;;;5029542;28;20521;-73
2022/04/12 05:45:30;;;;;;;17.42;8.95;;;;;;;;;;5044527;28;20037;-72
2022/04/12 05:47:56;;;;;;;17.20;8.90;;;;;;;;;;5048580;28;20043;-72
2022/04/12 05:50:23;;;;;;;14.52;8.88;;;;;;;;;;5049627;28;20025;-72
2022/04/12 05:52:50;;;;;;;15.38;9.00;;;;;;;;;;5029686;28;20037;-73
2022/04/12 05:55:17;;;;;;;16.33;8.75;;;;;;;;;;5041306;28;20028;-73
2022/04/12 05:57:57;;;;;;;21.35;10.77;;;;;;;;;;5025474;28;20083;-72
2022/04/12 06:00:24;;;;;;;18.35;10.63;;;;;;;;;;5045472;28;20268;-72
2022/04/12 06:02:51;;;;;;;17.02;8.60;;;;;;;;;;5048235;28;20036;-73
2022/04/12 06:05:18;;;;;;;20.50;9.55;;;;;;;;;;5039643;28;21884;-73
2022/04/12 06:07:44;;;;;;;14.93;9.38;;;;;;;;;;5042899;28;20080;-72
2022/04/12 06:10:11;;;;;;;15.45;9.68;;;;;;;;;;5037190;28;20134;-73
2022/04/12 06:12:37;;;;;;;16.40;9.65;;;;;;;;;;5030627;28;20078;-73
2022/04/12 06:15:03;;;;;;;18.20;9.30;;;;;;;;;;5042444;28;20535;-71
2022/04/12 06:17:30;;;;;;;18.08;9.20;;;;;;;;;;5047220;28;20025;-72
2022/04/12 06:20:17;;;;;;;19.35;9.65;;;;;;;;;;5045262;28;20031;-71
2022/04/12 06:22:43;;;;;;;24.77;9.80;;;;;;;;;;5043533;28;20044;-71
2022/04/12 06:25:10;;;;;;;23.30;9.18;;;;;;;;;;5029048;28;20104;-71
2022/04/12 06:27:41;;;;;;;20.00;11.68;;;;;;;;;;5048442;28;20032;-71
2022/04/12 06:30:12;;;;;;;21.13;10.00;;;;;;;;;;5053409;28;20516;-70
2022/04/12 06:32:38;;;;;;;15.52;10.32;;;;;;;;;;5049976;28;20556;-71
2022/04/12 06:35:05;;;;;;;19.80;10.10;;;;;;;;;;5048647;28;20052;-70
2022/04/12 06:37:32;;;;;;;16.98;10.63;;;;;;;;;;5045172;28;20067;-70
2022/04/12 06:39:58;;;;;;;18.95;10.00;;;;;;;;;;5049890;28;20052;-71
2022/04/12 06:42:25;;;;;;;20.10;9.40;;;;;;;;;;5043449;28;20028;-71
2022/04/12 06:44:51;;;;;;;17.05;9.02;;;;;;;;;;5047835;28;20029;-72
2022/04/12 06:47:17;;;;;;;18.65;9.77;;;;;;;;;;5046129;28;20028;-70
2022/04/12 06:49:47;;;;;;;16.25;10.25;;;;;;;;;;5048210;28;20037;-71
2022/04/12 06:52:14;;;;;;;21.80;9.57;;;;;;;;;;5059555;28;20628;-71
2022/04/12 06:54:40;;;;;;;23.38;9.50;;;;;;;;;;5052648;28;20028;-70
2022/04/12 06:57:06;;;;;;;23.58;10.73;;;;;;;;;;5054297;28;20033;-71
2022/04/12 06:59:33;;;;;;;19.98;10.20;;;;;;;;;;5053750;28;20043;-70
2022/04/12 07:01:59;;;;;;;18.35;9.30;;;;;;;;;;5056011;28;20021;-70
2022/04/12 07:04:25;;;;;;;15.52;10.63;;;;;;;;;;5055422;28;20090;-70
2022/04/12 07:06:51;;;;;;;21.45;10.02;;;;;;;;;;5058100;28;20414;-70
2022/04/12 07:09:20;;;;;;;20.27;10.38;;;;;;;;;;5057402;28;20025;-70
2022/04/12 07:11:49;;;;;;;21.25;9.63;;;;;;;;;;5050726;28;20021;-71
2022/04/12 07:14:16;;;;;;;19.05;9.93;;;;;;;;;;5044402;28;20566;-70
2022/04/12 07:16:42;;;;;;;20.83;10.20;;;;;;;;;;5044171;28;20025;-71
2022/04/12 07:19:08;;;;;;;18.13;11.30;;;;;;;;;;5056476;28;20029;-71
2022/04/12 07:21:34;;;;;;;22.05;10.20;;;;;;;;;;5057350;28;20109;-71
2022/04/12 07:24:03;;;;;;;19.05;9.25;;;;;;;;;;5056556;28;20870;-71
2022/04/12 07:26:29;;;;;;;18.45;8.70;;;;;;;;;;5059824;28;20461;-71
2022/04/12 07:28:55;;;;;;;17.30;9.85;;;;;;;;;;5044480;28;20025;-71
2022/04/12 07:31:21;;;;;;;19.20;9.85;;;;;;;;;;5051713;28;20105;-71
2022/04/12 07:33:47;;;;;;;17.30;9.45;;;;;;;;;;5053049;28;20605;-70
2022/04/12 07:36:14;;;;;;;21.13;9.35;;;;;;;;;;5045548;28;20036;-70
2022/04/12 07:38:41;;;;;;;15.75;9.10;;;;;;;;;;5049706;28;20017;-71
2022/04/12 07:41:07;;;;;;;20.92;8.75;;;;;;;;;;5050899;28;20104;-71
2022/04/12 07:43:34;;;;;;;15.32;8.77;;;;;;;;;;5027217;28;20506;-70
2022/04/12 07:46:00;;;;;;;19.55;9.30;;;;;;;;;;5042463;28;20423;-71
2022/04/12 07:48:26;;;;;;;14.90;8.45;;;;;;;;;;5054204;28;20064;-71
2022/04/12 07:50:52;;;;;;;19.20;8.43;;;;;;;;;;5061096;28;20037;-71
2022/04/12 07:53:18;;;;;;;12.10;8.18;;;;;;;;;;5056527;28;20115;-71
2022/04/12 07:55:44;;;;;;;15.15;8.13;;;;;;;;;;5049590;28;20155;-71
2022/04/12 07:58:10;;;;;;;17.52;8.77;;;;;;;;;;5044170;28;20039;-70
2022/04/12 08:00:36;;;;;;;19.50;8.85;;;;;;;;;;5050022;28;20040;-70
2022/04/12 08:03:02;;;;;;;19.10;9.30;;;;;;;;;;5048543;28;20764;-70
2022/04/12 08:05:28;;;;;;;20.15;10.07;;;;;;;;;;5046164;28;20132;-71
2022/04/12 08:07:55;;;;;;;19.13;9.73;;;;;;;;;;5046601;28;20386;-70
2022/04/12 08:10:21;;;;;;;14.25;8.75;;;;;;;;;;5047669;28;20044;-71
2022/04/12 08:12:47;;;;;;;19.67;9.30;;;;;;;;;;5036418;28;20045;-70
2022/04/12 08:15:15;;;;;;;24.08;10.10;;;;;;;;;;5042611;28;20033;-70
2022/04/12 08:17:41;;;;;;;16.25;9.07;;;;;;;;;;5042362;28;20082;-70
2022/04/12 08:20:13;;;;;;;20.23;9.70;;;;;;;;;;5042506;28;20098;-70
2022/04/12 08:22:40;;;;;;;18.20;9.70;;;;;;;;;;5046945;28;20028;-71
2022/04/12 08:25:07;;;;;;;19.98;10.38;;;;;;;;;;5055874;28;20036;-69
2022/04/12 08:27:34;;;;;;;16.08;9.65;;;;;;;;;;5047280;28;20021;-70
2022/04/12 08:30:00;;;;;;;16.92;10.13;;;;;;;;;;5041304;28;20045;-71
2022/04/12 08:32:26;;;;;;;22.38;10.68;;;;;;;;;;5020526;28;20029;-70
2022/04/12 08:34:53;;;;;;;17.10;10.35;;;;;;;;;;5043447;28;20030;-71
2022/04/12 08:37:21;;;;;;;19.45;10.30;;;;;;;;;;5048808;28;20058;-71
2022/04/12 08:39:47;;;;;;;19.88;10.00;;;;;;;;;;5049274;28;20107;-72
2022/04/12 08:42:14;;;;;;;15.02;9.50;;;;;;;;;;5048289;28;20182;-72
2022/04/12 08:44:43;;;;;;;22.58;10.00;;;;;;;;;;5027676;28;20371;-72
2022/04/12 08:47:09;;;;;;;19.55;10.13;;;;;;;;;;5046163;28;20538;-71
2022/04/12 08:49:38;;;;;;;18.83;9.60;;;;;;;;;;5045915;28;20079;-72
2022/04/12 08:52:04;;;;;;;17.00;10.10;;;;;;;;;;5032844;28;20039;-73
2022/04/12 08:54:32;;;;;;;19.25;9.32;;;;;;;;;;5048022;28;20032;-72
2022/04/12 08:56:58;;;;;;;18.58;10.70;;;;;;;;;;5049560;28;20094;-73
2022/04/12 08:59:25;;;;;;;20.55;10.07;;;;;;;;;;5031301;28;20426;-72
2022/04/12 09:01:51;;;;;;;15.25;10.38;;;;;;;;;;5046307;28;20017;-71
2022/04/12 09:04:17;;;;;;;25.65;10.63;;;;;;;;;;5040307;28;20032;-71
2022/04/12 09:06:57;;;;;;;25.00;11.35;;;;;;;;;;5040311;28;20140;-71
2022/04/12 09:09:24;;;;;;;21.98;10.85;;;;;;;;;;5034221;28;20047;-72
2022/04/12 09:12:02;;;;;;;18.88;10.95;;;;;;;;;;5047287;28;20115;-71
2022/04/12 09:14:39;;;;;;;19.77;11.10;;;;;;;;;;5050805;28;20021;-71
2022/04/12 09:17:06;;;;;;;18.27;10.98;;;;;;;;;;5052770;28;20032;-72
2022/04/12 09:19:38;;;;;;;21.33;10.50;;;;;;;;;;5050592;28;20021;-71
2022/04/12 09:22:21;;;;;;;19.00;11.80;;;;;;;;;;5047328;28;20028;-71
2022/04/12 09:24:58;;;;;;;18.08;11.07;;;;;;;;;;5053126;28;20087;-72
2022/04/12 09:27:27;;;;;;;20.02;10.98;;;;;;;;;;5049499;28;20040;-72
2022/04/12 09:30:00;;;;;;;24.02;10.90;;;;;;;;;;5048038;28;20084;-72
2022/04/12 09:32:27;;;;;;;17.27;10.32;;;;;;;;;;5051638;28;20025;-72
2022/04/12 09:34:54;;;;;;;15.98;10.63;;;;;;;;;;5047616;28;20064;-71
2022/04/12 09:37:21;;;;;;;18.38;10.38;;;;;;;;;;5046571;28;20021;-70
2022/04/12 09:39:54;;;;;;;22.88;10.57;;;;;;;;;;5049713;28;20489;-71
2022/04/12 09:42:39;;;;;;;18.52;11.50;;;;;;;;;;5053205;28;20025;-71
2022/04/12 09:45:06;;;;;;;18.10;9.55;;;;;;;;;;5051885;28;20029;-71
2022/04/12 09:47:32;;;;;;;15.05;9.55;;;;;;;;;;5046060;28;20094;-71
2022/04/12 09:50:00;;;;;;;19.13;9.48;;;;;;;;;;5055487;28;20025;-73
2022/04/12 09:52:27;;;;;;;16.08;10.68;;;;;;;;;;5050369;28;20041;-72
2022/04/12 09:54:53;;;;;;;15.18;9.38;;;;;;;;;;5051140;28;20063;-71
2022/04/12 09:57:20;;;;;;;21.00;11.20;;;;;;;;;;5044985;28;20021;-72
2022/04/12 09:59:46;;;;;;;17.13;10.02;;;;;;;;;;5052212;28;20040;-71
2022/04/12 10:02:12;;;;;;;16.83;11.23;;;;;;;;;;5051045;28;20096;-73
2022/04/12 10:04:39;;;;;;;19.15;10.63;;;;;;;;;;5049326;28;20094;-71
2022/04/12 10:07:08;;;;;;;16.08;11.00;;;;;;;;;;5049029;28;20124;-73
2022/04/12 10:09:37;;;;;;;19.35;11.10;;;;;;;;;;5031373;28;20176;-71
2022/04/12 10:12:04;;;;;;;21.58;11.27;;;;;;;;;;5047765;28;20052;-72
2022/04/12 10:14:31;;;;;;;19.65;10.55;;;;;;;;;;5053107;28;20040;-72
2022/04/12 10:16:57;;;;;;;21.60;10.55;;;;;;;;;;5032542;28;20166;-73
2022/04/12 10:19:23;;;;;;;25.15;12.38;;;;;;;;;;5049576;28;20021;-73
2022/04/12 10:21:49;;;;;;;23.30;11.30;;;;;;;;;;5045487;28;20025;-73
2022/04/12 10:24:17;;;;;;;19.70;12.55;;;;;;;;;;5049719;28;20029;-73
2022/04/12 10:26:46;;;;;;;17.88;11.88;;;;;;;;;;5051624;28;20025;-73
2022/04/12 10:29:13;;;;;;;30.48;12.52;;;;;;;;;;5045731;28;20030;-73
2022/04/12 10:31:53;;;;;;;28.15;14.73;;;;;;;;;;5050228;28;20075;-73
2022/04/12 10:34:19;;;;;;;25.52;15.45;;;;;;;;;;5050793;28;20021;-73
2022/04/12 10:36:58;;;;;;;26.27;13.45;;;;;;;;;;5051931;28;20021;-72
2022/04/12 10:39:30;;;;;;;29.52;16.70;;;;;;;;;;5052208;28;20033;-73
2022/04/12 10:41:59;;;;;;;31.23;15.68;;;;;;;;;;5052126;28;20652;-73
2022/04/12 10:44:25;;;;;;;34.25;16.55;;;;;;;;;;5033063;28;20131;-74
2022/04/12 10:46:52;;;;;;;24.60;14.95;;;;;;;;;;5035351;28;20044;-74
2022/04/12 10:49:22;;;;;;;29.98;16.45;;;;;;;;;;5047720;28;20033;-73
2022/04/12 10:52:08;;;;;;;34.35;17.67;;;;;;;;;;5025770;28;20032;-73
2022/04/12 10:54:35;;;;;;;31.95;16.42;;;;;;;;;;5047745;28;20128;-73
2022/04/12 10:57:17;;;;;;;31.73;18.85;;;;;;;;;;5050511;28;20025;-72
2022/04/12 10:59:48;;;;;;;33.72;20.45;;;;;;;;;;5041343;28;20021;-72
2022/04/12 11:02:14;;;;;;;31.90;19.92;;;;;;;;;;5048265;28;20085;-73
2022/04/12 11:04:40;;;;;;;32.50;20.33;;;;;;;;;;5047745;28;20091;-71
2022/04/12 11:07:07;;;;;;;36.47;21.00;;;;;;;;;;5055051;28;20224;-75
2022/04/12 11:09:33;;;;;;;36.58;21.13;;;;;;;;;;5037072;28;20053;-72
2022/04/12 11:12:02;;;;;;;35.20;20.42;;;;;;;;;;5049634;28;20033;-72
2022/04/12 11:14:32;;;;;;;32.28;19.67;;;;;;;;;;5033820;28;20406;-72
2022/04/12 11:17:00;;;;;;;35.78;21.83;;;;;;;;;;5046590;28;20036;-70
2022/04/12 11:19:27;;;;;;;35.90;22.52;;;;;;;;;;5031966;28;20036;-72
2022/04/12 11:21:56;;;;;;;37.60;23.98;;;;;;;;;;5033380;28;20480;-71
2022/04/12 11:24:23;;;;;;;41.72;21.55;;;;;;;;;;5049899;28;20032;-72
2022/04/12 11:27:01;;;;;;;37.90;22.50;;;;;;;;;;5037773;28;20577;-72
2022/04/12 11:29:28;;;;;;;40.60;22.60;;;;;;;;;;5049928;28;20087;-71
2022/04/12 11:31:55;;;;;;;48.40;22.90;;;;;;;;;;5028869;28;20157;-72
2022/04/12 11:34:22;;;;;;;41.75;23.90;;;;;;;;;;5043931;28;20033;-73
2022/04/12 11:36:52;;;;;;;43.50;24.17;;;;;;;;;;5049147;28;20028;-72
2022/04/12 11:39:22;;;;;;;39.38;24.00;;;;;;;;;;5050934;28;20032;-72
2022/04/12 11:41:48;;;;;;;46.20;26.05;;;;;;;;;;5047059;28;20047;-70
2022/04/12 11:44:22;;;;;;;49.65;26.20;;;;;;;;;;5043760;28;20383;-72
2022/04/12 11:46:55;;;;;;;40.42;23.13;;;;;;;;;;5052370;28;20036;-71
2022/04/12 11:49:27;;;;;;;41.15;25.23;;;;;;;;;;5053899;28;20033;-71
2022/04/12 11:51:53;;;;;;;44.55;26.70;;;;;;;;;;5044672;28;20029;-72
2022/04/12 11:54:26;;;;;;;45.13;28.17;;;;;;;;;;5045118;28;20041;-72
2022/04/12 11:57:11;;;;;;;46.22;25.65;;;;;;;;;;5046307;28;20360;-70
2022/04/12 11:59:45;;;;;;;45.80;26.57;;;;;;;;;;5041888;28;20029;-72
2022/04/12 12:02:12;;;;;;;50.65;27.73;;;;;;;;;;5047854;28;20505;-72
2022/04/12 12:04:44;;;;;;;48.53;26.75;;;;;;;;;;5048126;28;20131;-71
2022/04/12 12:07:20;;;;;;;43.17;27.25;;;;;;;;;;5046069;28;20526;-71
2022/04/12 12:09:59;;;;;;;47.53;27.30;;;;;;;;;;5031748;28;20628;-71
2022/04/12 12:12:37;;;;;;;44.25;26.45;;;;;;;;;;5041217;28;20083;-72
2022/04/12 12:15:13;;;;;;;51.88;28.60;;;;;;;;;;5031005;28;20044;-72
2022/04/12 12:17:39;;;;;;;49.10;28.45;;;;;;;;;;5045098;28;20024;-72
2022/04/12 12:20:11;;;;;;;44.50;26.10;;;;;;;;;;5042664;28;20037;-71
2022/04/12 12:22:38;;;;;;;46.67;25.30;;;;;;;;;;5048440;28;20029;-72
2022/04/12 12:25:04;;;;;;;41.80;24.10;;;;;;;;;;5047716;28;20418;-72
2022/04/12 12:27:41;;;;;;;46.63;23.58;;;;;;;;;;5041818;28;20033;-72
2022/04/12 12:30:19;;;;;;;42.00;22.67;;;;;;;;;;5049421;28;20785;-72
2022/04/12 12:32:45;;;;;;;40.13;23.95;;;;;;;;;;5047536;28;20087;-72
2022/04/12 12:35:12;;;;;;;38.55;22.20;;;;;;;;;;5043690;28;20087;-71
2022/04/12 12:37:39;;;;;;;42.25;24.85;;;;;;;;;;5039988;28;20446;-72
2022/04/12 12:40:17;;;;;;;45.00;24.60;;;;;;;;;;5038520;28;20114;-72
2022/04/12 12:42:43;;;;;;;45.08;24.67;;;;;;;;;;5046805;28;20038;-72
2022/04/12 12:45:13;;;;;;;48.00;25.38;;;;;;;;;;5047648;28;20106;-72
2022/04/12 12:47:44;;;;;;;46.90;26.20;;;;;;;;;;5049556;28;20037;-71
2022/04/12 12:50:11;;;;;;;39.10;23.17;;;;;;;;;;5047605;28;20032;-72
2022/04/12 12:52:38;;;;;;;39.17;23.20;;;;;;;;;;5046982;28;20029;-72
2022/04/12 12:55:06;;;;;;;39.00;25.38;;;;;;;;;;5033443;28;20486;-72
2022/04/12 12:57:40;;;;;;;41.28;22.08;;;;;;;;;;5028641;28;20029;-72
2022/04/12 13:00:07;;;;;;;42.42;22.55;;;;;;;;;;5048316;28;20051;-72
2022/04/12 13:02:34;;;;;;;42.92;23.48;;;;;;;;;;5051888;28;20033;-71
2022/04/12 13:05:02;;;;;;;41.35;21.90;;;;;;;;;;5034558;28;20136;-72
2022/04/12 13:07:32;;;;;;;42.17;23.08;;;;;;;;;;5045216;28;20048;-72
2022/04/12 13:10:05;;;;;;;44.80;24.17;;;;;;;;;;5048611;28;20031;-72
2022/04/12 13:12:31;;;;;;;40.25;23.65;;;;;;;;;;5043163;28;20450;-72
2022/04/12 13:14:57;;;;;;;38.90;23.08;;;;;;;;;;5042805;28;20040;-72
2022/04/12 13:17:23;;;;;;;35.75;19.77;;;;;;;;;;5048677;28;20596;-72
2022/04/12 13:19:49;;;;;;;28.30;17.35;;;;;;;;;;5051224;28;20120;-72
2022/04/12 13:22:16;;;;;;;36.17;18.90;;;;;;;;;;5042538;28;20364;-73
2022/04/12 13:24:42;;;;;;;38.10;18.60;;;;;;;;;;5051779;28;20054;-71
2022/04/12 13:27:08;;;;;;;31.45;18.67;;;;;;;;;;5047452;28;20029;-71
2022/04/12 13:29:34;;;;;;;37.88;20.80;;;;;;;;;;5046960;28;20151;-70
2022/04/12 13:32:00;;;;;;;37.80;21.80;;;;;;;;;;5043736;28;20033;-73
2022/04/12 13:34:26;;;;;;;38.17;21.17;;;;;;;;;;5050176;28;20029;-73
2022/04/12 13:36:52;;;;;;;38.05;20.95;;;;;;;;;;5041924;28;20035;-73
2022/04/12 13:39:18;;;;;;;40.97;23.95;;;;;;;;;;5043823;28;20031;-72
2022/04/12 13:41:47;;;;;;;40.35;25.38;;;;;;;;;;5048322;28;20037;-73
2022/04/12 13:44:13;;;;;;;37.67;21.38;;;;;;;;;;5054085;28;20035;-72
2022/04/12 13:46:39;;;;;;;43.00;23.27;;;;;;;;;;5047698;28;20031;-71
2022/04/12 13:49:05;;;;;;;40.28;21.88;;;;;;;;;;5050354;28;20033;-72
2022/04/12 13:51:31;;;;;;;39.38;21.83;;;;;;;;;;5042902;28;20032;-72
2022/04/12 13:53:57;;;;;;;35.85;19.70;;;;;;;;;;5031876;28;20055;-71
2022/04/12 13:56:24;;;;;;;39.08;19.92;;;;;;;;;;5050960;28;20695;-72
2022/04/12 13:58:50;;;;;;;39.35;20.90;;;;;;;;;;5049446;28;20100;-71
2022/04/12 14:01:16;;;;;;;37.10;19.63;;;;;;;;;;5029119;28;20112;-71
2022/04/12 14:03:42;;;;;;;35.67;19.17;;;;;;;;;;5053534;28;20037;-71
2022/04/12 14:06:08;;;;;;;34.97;18.55;;;;;;;;;;5040606;28;20045;-71
2022/04/12 14:08:37;;;;;;;30.13;17.73;;;;;;;;;;5044823;28;20025;-71
2022/04/12 14:11:06;;;;;;;31.15;16.60;;;;;;;;;;5040250;28;20025;-72
2022/04/12 14:13:33;;;;;;;32.45;17.35;;;;;;;;;;5049203;28;20033;-71
2022/04/12 14:15:59;;;;;;;29.00;15.63;;;;;;;;;;5048690;28;20029;-72
2022/04/12 14:18:25;;;;;;;26.98;16.85;;;;;;;;;;5042601;28;20033;-72
2022/04/12 14:20:53;;;;;;;26.67;16.55;;;;;;;;;;5046525;28;20038;-71
2022/04/12 14:23:19;;;;;;;26.75;16.70;;;;;;;;;;5048586;28;20029;-72
2022/04/12 14:25:46;;;;;;;30.85;15.23;;;;;;;;;;5030265;28;20051;-71
2022/04/12 14:28:12;;;;;;;28.85;15.98;;;;;;;;;;5027785;28;20042;-72
2022/04/12 14:30:39;;;;;;;24.75;15.25;;;;;;;;;;5045887;28;20033;-70